.
WxDataArchive / Data Records for 2009-06-15
2009-06-14 June 2009 2009-06-16

Data Records for Monday, 15 June 2009

Time	Temp	Chill	HIndex	Humid	Dewpt	 Wind 	HiWind	WindDir	Rain 	Barom 
-----	----	-----	------	-----	-----	------	------	-------	-----	----- 
00:00	62.3	62.3	62.3	84	57.4	0	0	---	0.00	29.997 
00:05	62.1	62.1	62.1	84	57.2	0	0	---	0.00	29.997 
00:10	61.8	61.8	61.8	85	57.2	0	0	---	0.00	29.997 
00:15	61.6	61.6	61.6	85	57.0	0	0	---	0.00	29.995 
00:20	61.5	61.5	61.5	85	56.9	0	0	---	0.00	29.995 
00:25	61.3	61.3	61.3	86	57.1	0	0	---	0.00	29.995 
00:30	61.2	61.2	61.2	86	57.0	0	0	---	0.00	30.002 
00:35	61.0	61.0	61.0	86	56.8	0	3	135	0.00	30.002 
00:40	60.9	60.9	60.9	87	57.0	0	2	135	0.00	30.002 
00:45	60.9	60.9	60.9	88	57.3	0	0	---	0.00	30.004 
00:50	60.9	60.9	60.9	88	57.3	0	0	---	0.00	30.004 
00:55	60.7	60.7	60.7	88	57.1	0	0	---	0.00	30.004 
01:00	60.7	60.7	60.7	88	57.1	0	0	---	0.00	30.006 
01:05	60.7	60.7	60.7	88	57.1	0	0	---	0.00	30.006 
01:10	60.7	60.7	60.7	89	57.4	0	0	---	0.00	30.006 
01:15	60.7	60.7	60.7	89	57.4	0	0	---	0.00	30.007 
01:20	60.7	60.7	60.7	89	57.4	0	0	---	0.00	30.007 
01:25	60.5	60.5	60.5	89	57.2	0	0	---	0.00	30.007 
01:30	60.4	60.4	60.4	89	57.1	0	0	---	0.00	30.009 
01:35	60.2	60.2	60.2	89	56.9	0	1	135	0.00	30.009 
01:40	60.1	60.1	60.1	89	56.8	0	0	---	0.00	30.009 
01:45	59.9	59.9	59.9	89	56.6	0	0	---	0.00	30.009 
01:50	59.9	59.9	59.9	89	56.6	0	0	---	0.00	30.009 
01:55	59.8	59.8	59.8	90	56.9	0	0	---	0.00	30.009 
02:00	59.6	59.6	59.6	90	56.7	0	0	---	0.00	30.004 
02:05	59.6	59.6	59.6	90	56.7	0	0	---	0.00	30.004 
02:10	59.5	59.5	59.5	90	56.6	0	0	---	0.00	30.004 
02:15	59.5	59.5	59.5	90	56.6	0	0	---	0.00	30.006 
02:20	59.5	59.5	59.5	90	56.6	0	0	---	0.00	30.006 
02:25	59.3	59.3	59.3	90	56.4	0	0	---	0.00	30.006 
02:30	59.3	59.3	59.3	90	56.4	0	0	---	0.00	30.005 
02:35	59.2	59.2	59.2	90	56.3	0	0	---	0.00	30.005 
02:40	59.3	59.3	59.3	90	56.4	0	0	---	0.00	30.005 
02:45	59.3	59.3	59.3	90	56.4	0	0	---	0.00	30.005 
02:50	59.2	59.2	59.2	90	56.3	0	1	135	0.00	30.005 
02:55	59.2	59.2	59.2	89	56.0	0	0	---	0.00	30.005 
03:00	59.2	59.2	59.2	89	56.0	0	0	---	0.00	30.005 
03:05	59.0	59.0	59.0	89	55.8	0	0	---	0.00	30.005 
03:10	59.0	59.0	59.0	89	55.8	0	0	---	0.00	30.005 
03:15	59.0	59.0	59.0	88	55.4	0	0	---	0.00	30.008 
03:20	58.9	58.9	58.9	88	55.3	0	0	---	0.00	30.008 
03:25	58.9	58.9	58.9	88	55.3	0	0	---	0.00	30.008 
03:30	58.9	58.9	58.9	88	55.3	0	0	---	0.00	30.009 
03:35	58.7	58.7	58.7	88	55.2	0	0	---	0.00	30.009 
03:40	58.7	58.7	58.7	88	55.2	0	0	---	0.00	30.009 
03:45	58.6	58.6	58.6	88	55.1	0	0	---	0.00	30.004 
03:50	58.4	58.4	58.4	88	54.9	0	0	---	0.00	30.004 
03:55	58.3	58.3	58.3	88	54.8	0	0	---	0.00	30.004 
04:00	58.1	58.1	58.1	88	54.6	0	0	---	0.00	30.003 
04:05	58.0	58.0	58.0	89	54.8	0	0	---	0.00	30.003 
04:10	57.6	57.6	57.6	89	54.4	0	0	---	0.00	30.003 
04:15	57.6	57.6	57.6	89	54.4	0	0	---	0.00	29.998 
04:20	57.5	57.5	57.5	89	54.3	0	0	---	0.00	29.998 
04:25	57.5	57.5	57.5	89	54.3	0	0	---	0.00	29.998 
04:30	57.3	57.3	57.3	89	54.1	0	0	---	0.00	30.001 
04:35	57.2	57.2	57.2	90	54.3	0	0	---	0.00	30.001 
04:40	57.0	57.0	57.0	89	53.8	0	0	---	0.00	30.001 
04:45	56.9	56.9	56.9	89	53.7	0	0	---	0.00	29.997 
04:50	56.7	56.7	56.7	89	53.5	0	0	---	0.00	29.997 
04:55	56.7	56.7	56.7	89	53.5	0	0	---	0.00	29.997 
05:00	56.7	56.7	56.7	89	53.5	0	0	---	0.00	30.004 
05:05	56.7	56.7	56.7	89	53.5	0	0	---	0.00	30.004 
05:10	56.6	56.6	56.6	89	53.4	0	0	---	0.00	30.004 
05:15	56.5	56.5	56.5	89	53.3	0	0	---	0.00	30.007 
05:20	56.5	56.5	56.5	89	53.3	0	0	---	0.00	30.007 
05:25	56.5	56.5	56.5	89	53.3	0	0	---	0.00	30.007 
05:30	56.5	56.5	56.5	88	53.0	0	0	---	0.00	30.010 
05:35	56.3	56.3	56.3	88	52.8	0	0	---	0.00	30.010 
05:40	56.3	56.3	56.3	88	52.8	0	0	---	0.00	30.010 
05:45	56.2	56.2	56.2	88	52.7	0	0	---	0.00	30.013 
05:50	56.2	56.2	56.2	88	52.7	0	0	---	0.00	30.013 
05:55	56.0	56.0	56.0	88	52.5	0	0	---	0.00	30.013 
06:00	56.0	56.0	56.0	88	52.5	0	0	---	0.00	30.020 
06:05	55.9	55.9	55.9	88	52.4	0	0	---	0.00	30.020 
06:10	55.7	55.7	55.7	88	52.2	0	0	---	0.00	30.020 
06:15	55.7	55.7	55.7	89	52.5	0	0	---	0.00	30.028 
06:20	55.7	55.7	55.7	89	52.5	0	0	---	0.00	30.028 
06:25	55.7	55.7	55.7	89	52.5	0	0	---	0.00	30.028 
06:30	55.7	55.7	55.7	89	52.5	0	0	---	0.00	30.041 
06:35	55.7	55.7	55.7	89	52.5	0	0	---	0.00	30.041 
06:40	55.7	55.7	55.7	90	52.8	0	0	---	0.00	30.041 
06:45	55.7	55.7	55.7	90	52.8	0	0	---	0.00	30.042 
06:50	55.7	55.7	55.7	90	52.8	0	0	---	0.00	30.042 
06:55	55.9	55.9	55.9	90	53.0	0	0	---	0.00	30.042 
07:00	55.9	55.9	55.9	90	53.0	0	0	---	0.00	30.049 
07:05	55.9	55.9	55.9	90	53.0	0	0	---	0.00	30.049 
07:10	56.0	56.0	56.0	90	53.1	0	0	---	0.00	30.049 
07:15	56.2	56.2	56.2	90	53.3	0	0	---	0.00	30.055 
07:20	56.3	56.3	56.3	90	53.4	0	0	---	0.00	30.055 
07:25	56.5	56.5	56.5	90	53.6	0	0	---	0.00	30.055 
07:30	56.7	56.7	56.7	90	53.8	0	0	---	0.00	30.042 
07:35	57.0	57.0	57.0	91	54.4	0	0	---	0.00	30.042 
07:40	58.0	58.0	58.0	91	55.4	0	0	---	0.00	30.042 
07:45	59.2	59.2	59.2	87	55.3	0	1	135	0.00	30.037 
07:50	60.5	60.5	60.5	85	56.0	0	1	135	0.00	30.037 
07:55	61.8	61.8	61.8	81	55.9	0	1	135	0.00	30.037 
08:00	63.1	63.1	63.1	78	56.1	0	1	135	0.00	30.036 
08:05	64.3	64.3	64.3	74	55.8	0	1	135	0.00	30.036 
08:10	65.6	65.6	65.6	72	56.3	0	2	135	0.00	30.036 
08:15	66.4	66.4	66.4	69	55.9	1	3	135	0.00	30.036 
08:20	66.8	66.8	66.8	68	55.9	0	2	135	0.00	30.036 
08:25	66.9	66.9	66.9	69	56.4	0	2	135	0.00	30.036 
08:30	67.3	67.3	67.3	68	56.4	1	4	135	0.00	30.030 
08:35	67.6	67.6	67.6	68	56.7	0	3	90	0.00	30.030 
08:40	67.6	67.6	67.6	67	56.2	0	2	90	0.00	30.030 
08:45	67.6	67.6	67.6	69	57.1	0	3	90	0.00	30.035 
08:50	67.8	67.8	67.8	69	57.2	0	1	90	0.00	30.035 
08:55	68.1	68.1	68.1	65	55.9	0	2	90	0.00	30.035 
09:00	68.6	68.6	68.6	66	56.8	0	2	90	0.00	30.035 
09:05	68.9	68.9	68.9	66	57.1	0	3	90	0.00	30.035 
09:10	69.6	69.6	69.6	66	57.7	0	1	90	0.00	30.035 
09:15	69.9	69.9	69.9	64	57.2	1	3	90	0.00	30.036 
09:20	70.1	70.1	70.1	63	56.9	1	3	90	0.00	30.036 
09:25	70.3	70.3	70.3	63	57.1	1	3	90	0.00	30.036 
09:30	70.4	70.4	70.4	63	57.2	1	4	90	0.00	30.037 
09:35	70.8	70.8	70.8	61	56.7	1	3	90	0.00	30.037 
09:40	70.9	70.9	70.9	63	57.7	1	2	90	0.00	30.037 
09:45	71.6	71.6	71.6	61	57.4	1	3	90	0.00	30.044 
09:50	72.1	72.1	72.1	59	57.0	1	3	90	0.00	30.044 
09:55	72.5	72.5	72.5	60	57.8	1	3	90	0.00	30.044 
10:00	72.8	72.8	72.8	59	57.6	0	2	90	0.00	30.042 
10:05	73.9	73.9	73.9	59	58.7	0	2	90	0.00	30.042 
10:10	74.4	74.4	74.4	56	57.7	1	3	90	0.00	30.042 
10:15	73.9	73.9	73.9	58	58.2	2	5	90	0.00	30.036 
10:20	73.9	73.9	73.9	58	58.2	1	3	112	0.00	30.036 
10:25	74.0	74.0	74.0	60	59.2	0	2	112	0.00	30.036 
10:30	74.0	74.0	74.0	61	59.7	0	1	112	0.00	30.034 
10:35	74.0	74.0	74.0	61	59.7	0	2	112	0.00	30.034 
10:40	74.2	74.2	74.2	59	58.9	1	5	90	0.00	30.034 
10:45	74.9	74.9	74.9	58	59.1	1	3	90	0.00	30.035 
10:50	75.3	75.3	77.5	60	60.4	0	4	112	0.00	30.035 
10:55	75.6	75.6	77.8	55	58.3	2	4	112	0.00	30.035 
11:00	75.8	75.8	77.9	57	59.5	2	4	112	0.00	30.042 
11:05	76.3	76.3	78.2	58	60.4	0	1	112	0.00	30.042 
11:10	76.3	76.3	78.3	56	59.4	2	4	112	0.00	30.042 
11:15	76.7	76.7	78.5	56	59.8	1	2	112	0.00	30.053 
11:20	77.2	77.2	78.9	57	60.8	1	3	112	0.00	30.053 
11:25	77.6	77.6	79.0	51	58.0	1	3	112	0.00	30.053 
11:30	77.7	77.7	79.0	49	57.0	2	6	112	0.00	30.049 
11:35	77.7	77.7	79.1	52	58.6	1	4	112	0.00	30.049 
11:40	77.9	77.9	79.3	53	59.4	2	4	112	0.00	30.049 
11:45	77.9	77.9	79.0	47	56.0	1	3	112	0.00	30.050 
11:50	77.6	77.6	78.9	49	56.9	1	3	112	0.00	30.050 
11:55	76.8	76.8	78.5	51	57.3	0	3	112	0.00	30.050 
12:00	76.8	76.8	78.5	53	58.4	1	5	90	0.00	30.052 
12:05	77.0	77.0	78.6	51	57.5	1	4	112	0.00	30.052 
12:10	76.7	76.7	78.3	46	54.3	0	2	112	0.00	30.052 
12:15	76.5	76.5	78.3	51	57.0	0	1	112	0.00	30.056 
12:20	76.3	76.3	78.2	51	56.8	0	2	112	0.00	30.056 
12:25	76.8	76.8	78.5	50	56.7	0	2	112	0.00	30.056 
12:30	77.9	77.9	79.1	49	57.2	0	2	112	0.00	30.052 
12:35	78.6	78.6	79.5	47	56.7	2	7	112	0.00	30.052 
12:40	79.0	79.0	79.6	45	55.8	0	3	135	0.00	30.052 
12:45	79.2	79.2	79.8	45	56.0	1	3	248	0.00	30.050 
12:50	79.6	79.6	80.0	44	55.7	1	4	112	0.00	30.050 
12:55	79.6	79.6	79.9	43	55.1	0	1	112	0.00	30.050 
13:00	79.9	79.9	80.6	49	59.0	1	2	112	0.00	30.048 
13:05	80.1	80.1	80.3	44	56.2	1	3	112	0.00	30.048 
13:10	80.3	80.3	80.3	42	55.1	1	3	112	0.00	30.048 
13:15	80.3	80.3	80.5	44	56.4	1	4	90	0.00	30.047 
13:20	80.1	80.1	79.8	38	52.2	1	3	90	0.00	30.047 
13:25	79.9	79.9	79.6	36	50.5	1	3	112	0.00	30.047 
13:30	79.9	79.9	79.6	36	50.5	2	4	112	0.00	30.044 
13:35	79.8	79.8	79.6	38	51.9	1	5	112	0.00	30.044 
13:40	79.8	79.8	80.1	44	55.9	2	5	90	0.00	30.044 
13:45	79.6	79.6	79.7	41	53.8	2	5	90	0.00	30.038 
13:50	79.6	79.6	79.6	39	52.4	2	6	90	0.00	30.038 
13:55	79.4	79.4	79.4	38	51.6	2	4	90	0.00	30.038 
14:00	79.6	79.6	79.7	41	53.8	0	1	90	0.00	30.036 
14:05	79.6	79.6	79.6	39	52.4	0	2	90	0.00	30.036 
14:10	79.6	79.6	79.6	39	52.4	1	5	90	0.00	30.036 
14:15	79.6	79.6	79.4	36	50.3	2	5	112	0.00	30.037 
14:20	79.6	79.6	79.6	39	52.4	0	1	90	0.00	30.037 
14:25	79.8	79.8	79.6	38	51.9	0	2	90	0.00	30.037 
14:30	79.8	79.8	79.5	36	50.4	1	5	90	0.00	30.036 
14:35	79.9	79.9	79.9	41	54.1	0	2	158	0.00	30.036 
14:40	79.9	79.9	79.9	40	53.4	1	4	112	0.00	30.036 
14:45	79.8	79.8	79.6	38	51.9	1	4	68	0.00	30.037 
14:50	80.1	80.1	80.0	40	53.6	0	2	68	0.00	30.037 
14:55	80.3	80.3	79.7	35	50.1	0	1	68	0.00	30.037 
15:00	80.7	80.7	80.2	38	52.7	2	4	90	0.00	30.037 
15:05	80.9	80.9	80.3	37	52.2	0	3	90	0.00	30.037 
15:10	81.2	81.2	80.9	41	55.2	1	3	112	0.00	30.037 
15:15	81.1	81.1	80.1	33	49.2	1	2	112	0.00	30.038 
15:20	81.2	81.2	80.7	39	53.9	0	3	112	0.00	30.038 
15:25	81.1	81.1	80.7	40	54.5	0	2	112	0.00	30.038 
15:30	80.5	80.5	79.9	36	51.1	0	1	112	0.00	30.036 
15:35	80.3	80.3	80.0	38	52.4	0	3	112	0.00	30.036 
15:40	80.3	80.3	79.7	34	49.3	1	4	90	0.00	30.036 
15:45	80.7	80.7	80.2	37	52.0	0	2	90	0.00	30.032 
15:50	81.2	81.2	80.7	39	53.9	1	4	112	0.00	30.032 
15:55	81.4	81.4	80.4	34	50.3	1	4	112	0.00	30.032 
16:00	81.6	81.6	80.5	33	49.7	0	3	90	0.00	30.023 
16:05	81.6	81.6	80.6	35	51.3	0	2	90	0.00	30.023 
16:10	81.8	81.8	80.9	36	52.2	1	5	90	0.00	30.023 
16:15	81.2	81.2	80.5	37	52.4	1	4	112	0.00	30.020 
16:20	80.7	80.7	80.3	39	53.4	1	3	112	0.00	30.020 
16:25	80.5	80.5	80.2	39	53.2	3	7	90	0.00	30.020 
16:30	80.3	80.3	79.7	35	50.1	2	5	90	0.00	30.018 
16:35	80.3	80.3	80.2	41	54.4	2	4	90	0.00	30.018 
16:40	80.7	80.7	80.2	37	52.0	0	2	90	0.00	30.018 
16:45	81.1	81.1	80.3	35	50.8	0	2	90	0.00	30.005 
16:50	81.2	81.2	80.3	35	50.9	1	3	90	0.00	30.005 
16:55	81.2	81.2	80.7	39	53.9	0	2	158	0.00	30.005 
17:00	81.1	81.1	80.5	38	53.1	1	3	158	0.00	30.004 
17:05	80.9	80.9	80.2	36	51.4	1	4	112	0.00	30.004 
17:10	80.7	80.7	80.2	38	52.7	1	5	112	0.00	30.004 
17:15	80.3	80.3	80.0	38	52.4	0	3	112	0.00	30.001 
17:20	80.1	80.1	79.9	39	52.9	0	2	112	0.00	30.001 
17:25	79.9	79.9	79.9	41	54.1	0	1	112	0.00	30.001 
17:30	79.8	79.8	80.0	42	54.6	0	2	112	0.00	29.998 
17:35	79.6	79.6	79.8	42	54.5	0	2	112	0.00	29.998 
17:40	79.4	79.4	79.6	41	53.6	1	2	112	0.00	29.998 
17:45	79.2	79.2	79.5	41	53.4	0	2	112	0.00	29.994 
17:50	79.2	79.2	79.5	41	53.4	0	1	112	0.00	29.994 
17:55	79.4	79.4	79.5	39	52.3	0	2	112	0.00	29.994 
18:00	79.6	79.6	79.4	37	51.0	1	2	112	0.00	29.990 
18:05	79.6	79.6	79.6	39	52.4	1	3	112	0.00	29.990 
18:10	79.6	79.6	79.7	40	53.1	0	2	112	0.00	29.990 
18:15	79.4	79.4	79.6	41	53.6	1	5	112	0.00	29.985 
18:20	79.0	79.0	79.2	39	51.9	1	5	112	0.00	29.985 
18:25	78.8	78.8	79.1	39	51.7	1	4	112	0.00	29.985 
18:30	79.0	79.0	79.5	43	54.6	0	1	112	0.00	29.979 
18:35	79.2	79.2	79.6	43	54.7	0	2	112	0.00	29.979 
18:40	79.4	79.4	79.8	43	54.9	1	2	112	0.00	29.979 
18:45	79.4	79.4	79.4	38	51.6	0	3	112	0.00	29.977 
18:50	79.4	79.4	79.4	38	51.6	2	4	112	0.00	29.977 
18:55	79.2	79.2	79.3	38	51.4	2	5	90	0.00	29.977 
19:00	79.0	79.0	79.2	38	51.2	1	5	112	0.00	29.983 
19:05	79.0	79.0	79.3	40	52.6	0	1	112	0.00	29.983 
19:10	79.0	79.0	79.3	40	52.6	1	4	112	0.00	29.983 
19:15	79.0	79.0	79.2	39	51.9	1	3	112	0.00	29.974 
19:20	79.0	79.0	79.3	40	52.6	0	2	112	0.00	29.974 
19:25	79.0	79.0	79.4	42	53.9	0	1	112	0.00	29.974 
19:30	78.6	78.6	79.1	41	52.9	0	2	112	0.00	29.981 
19:35	78.3	78.3	78.9	40	52.0	1	4	112	0.00	29.981 
19:40	77.9	77.9	78.8	42	52.9	1	2	112	0.00	29.981 
19:45	77.6	77.6	78.6	41	52.0	1	3	112	0.00	29.985 
19:50	77.4	77.4	78.6	44	53.8	0	2	112	0.00	29.985 
19:55	77.2	77.2	78.5	45	54.2	0	2	112	0.00	29.985 
20:00	76.8	76.8	78.3	45	53.8	0	2	112	0.00	29.988 
20:05	76.7	76.7	78.3	46	54.3	0	2	112	0.00	29.988 
20:10	76.5	76.5	78.2	46	54.2	0	3	112	0.00	29.988 
20:15	76.1	76.1	78.0	46	53.8	2	9	112	0.00	29.987 
20:20	76.0	76.0	78.1	49	55.4	2	9	112	0.00	29.987 
20:25	75.6	75.6	77.9	50	55.6	2	4	135	0.00	29.987 
20:30	75.3	75.3	77.7	51	55.9	2	6	68	0.00	29.991 
20:35	74.9	74.9	74.9	52	56.1	1	4	68	0.00	29.991 
20:40	74.7	74.7	74.7	51	55.4	2	6	90	0.00	29.991 
20:45	74.6	74.6	74.6	51	55.3	1	3	112	0.00	29.999 
20:50	74.4	74.4	74.4	53	56.1	1	3	68	0.00	29.999 
20:55	74.2	74.2	74.2	53	56.0	1	3	90	0.00	29.999 
21:00	74.0	74.0	74.0	54	56.3	1	2	90	0.00	30.001 
21:05	73.9	73.9	73.9	54	56.2	1	3	90	0.00	30.001 
21:10	73.7	73.7	73.7	54	56.0	1	2	90	0.00	30.001 
21:15	73.5	73.5	73.5	55	56.3	1	3	90	0.00	29.997 
21:20	73.3	73.3	73.3	56	56.6	0	1	90	0.00	29.997 
21:25	73.2	73.2	73.2	56	56.5	0	2	90	0.00	29.997 
21:30	73.0	73.0	73.0	56	56.4	1	3	90	0.00	29.997 
21:35	72.8	72.8	72.8	57	56.7	1	3	90	0.00	29.997 
21:40	72.7	72.7	72.7	57	56.6	1	3	90	0.00	29.997 
21:45	72.5	72.5	72.5	56	55.9	1	3	90	0.00	29.998 
21:50	72.3	72.3	72.3	57	56.2	1	4	90	0.00	29.998 
21:55	72.1	72.1	72.1	55	55.0	2	5	90	0.00	29.998 
22:00	72.0	72.0	72.0	56	55.4	1	4	90	0.00	30.001 
22:05	71.8	71.8	71.8	55	54.7	1	4	90	0.00	30.001 
22:10	71.6	71.6	71.6	55	54.6	1	3	90	0.00	30.001 
22:15	71.6	71.6	71.6	55	54.6	1	2	90	0.00	30.001 
22:20	71.5	71.5	71.5	55	54.5	1	2	90	0.00	30.001 
22:25	71.3	71.3	71.3	56	54.8	0	2	90	0.00	30.001 
22:30	71.1	71.1	71.1	56	54.6	0	3	90	0.00	30.014 
22:35	70.8	70.8	70.8	55	53.8	0	2	90	0.00	30.014 
22:40	70.6	70.6	70.6	55	53.6	1	3	90	0.00	30.014 
22:45	70.4	70.4	70.4	54	52.9	1	3	90	0.00	30.014 
22:50	70.3	70.3	70.3	54	52.9	1	2	90	0.00	30.014 
22:55	70.1	70.1	70.1	54	52.7	1	3	90	0.00	30.014 
23:00	69.9	69.9	69.9	54	52.5	1	2	90	0.00	30.016 
23:05	69.8	69.8	69.8	54	52.4	1	4	90	0.00	30.016 
23:10	69.6	69.6	69.6	55	52.7	1	4	90	0.00	30.016 
23:15	69.3	69.3	69.3	56	52.9	1	3	112	0.00	30.015 
23:20	68.9	68.9	68.9	57	53.0	1	2	112	0.00	30.015 
23:25	68.6	68.6	68.6	57	52.7	1	3	112	0.00	30.015 
23:30	68.4	68.4	68.4	58	53.0	1	3	112	0.00	30.016 
23:35	68.1	68.1	68.1	58	52.8	0	2	112	0.00	30.016 
23:40	67.8	67.8	67.8	59	52.9	0	2	112	0.00	30.016 
23:45	67.4	67.4	67.4	59	52.6	0	1	112	0.00	30.017 
23:50	67.3	67.3	67.3	59	52.5	0	1	112	0.00	30.017 
23:55	66.9	66.9	66.9	59	52.1	0	2	112	0.00	30.017 

CoCoRaHS
IN-AL-39
A2 Web Hosting
Creative Commons License
GoDaddy
search engine by freefind advanced

loaded 2018-11-13 21:13:40 • last modified 2010-11-18 10:43:29
Privacy PolicyDisclaimer
• wx.awcolley.com is powered by PmWiki v.2002016 •
• all content (unless otherwise noted) © 2018 A W Colley